createdAt,value
2023-04-09T00:00:32.437Z,100.00
2023-04-09T00:03:00.449Z,100.00
2023-04-09T00:05:28.360Z,100.00
2023-04-09T00:07:56.290Z,100.00
2023-04-09T00:10:23.870Z,100.00
2023-04-09T00:12:51.430Z,100.00
2023-04-09T00:15:29.902Z,100.00
2023-04-09T00:18:00.067Z,100.00
2023-04-09T00:20:28.150Z,100.00
2023-04-09T00:22:55.809Z,100.00
2023-04-09T00:25:23.747Z,100.00
2023-04-09T00:27:51.390Z,100.00
2023-04-09T00:30:19.745Z,100.00
2023-04-09T00:32:47.322Z,100.00
2023-04-09T00:35:16.351Z,100.00
2023-04-09T00:37:44.090Z,100.00
2023-04-09T00:40:12.230Z,100.00
2023-04-09T00:42:40.044Z,100.00
2023-04-09T00:45:08.730Z,100.00
2023-04-09T00:47:37.910Z,100.00
2023-04-09T00:50:06.500Z,100.00
2023-04-09T00:52:36.353Z,100.00
2023-04-09T00:55:05.757Z,100.00
2023-04-09T00:57:33.399Z,100.00
2023-04-09T01:00:01.659Z,100.00
2023-04-09T01:02:29.735Z,100.00
2023-04-09T01:04:59.470Z,100.00
2023-04-09T01:07:39.659Z,100.00
2023-04-09T01:10:21.582Z,100.00
2023-04-09T01:13:04.114Z,100.00
2023-04-09T01:15:38.429Z,100.00
2023-04-09T01:18:11.062Z,100.00
2023-04-09T01:20:42.396Z,100.00
2023-04-09T01:23:19.002Z,100.00
2023-04-09T01:26:03.526Z,100.00
2023-04-09T01:28:35.161Z,100.00
2023-04-09T01:31:09.694Z,100.00
2023-04-09T01:33:38.590Z,100.00
2023-04-09T01:36:07.353Z,100.00
2023-04-09T01:38:39.448Z,100.00
2023-04-09T01:41:09.348Z,100.00
2023-04-09T01:43:41.225Z,100.00
2023-04-09T01:46:10.754Z,100.00
2023-04-09T01:48:39.316Z,100.00
2023-04-09T01:51:07.111Z,100.00
2023-04-09T01:53:34.902Z,100.00
2023-04-09T01:56:02.720Z,100.00
2023-04-09T01:58:30.269Z,100.00
2023-04-09T02:01:06.936Z,100.00
2023-04-09T02:03:39.937Z,100.00
2023-04-09T02:06:13.829Z,100.00
2023-04-09T02:08:46.540Z,100.00
2023-04-09T02:11:15.849Z,100.00
2023-04-09T02:13:45.621Z,100.00
2023-04-09T02:16:18.088Z,100.00
2023-04-09T02:18:45.709Z,100.00
2023-04-09T02:21:13.310Z,100.00
2023-04-09T02:23:40.907Z,100.00
2023-04-09T02:26:08.453Z,100.00
2023-04-09T02:28:36.045Z,100.00
2023-04-09T02:31:04.170Z,100.00
2023-04-09T02:33:33.534Z,100.00
2023-04-09T02:36:01.186Z,100.00
2023-04-09T02:38:29.231Z,100.00
2023-04-09T02:40:56.989Z,100.00
2023-04-09T02:43:24.645Z,100.00
2023-04-09T02:45:52.371Z,100.00
2023-04-09T02:48:20.105Z,100.00
2023-04-09T02:50:49.145Z,100.00
2023-04-09T02:53:16.793Z,100.00
2023-04-09T02:55:44.353Z,100.00
2023-04-09T02:58:11.948Z,100.00
2023-04-09T03:00:39.582Z,100.00
2023-04-09T03:03:08.483Z,100.00
2023-04-09T03:05:36.360Z,100.00
2023-04-09T03:08:05.573Z,100.00
2023-04-09T03:10:33.210Z,100.00
2023-04-09T03:13:00.965Z,100.00
2023-04-09T03:15:28.624Z,100.00
2023-04-09T03:17:56.326Z,100.00
2023-04-09T03:20:23.996Z,100.00
2023-04-09T03:22:51.880Z,100.00
2023-04-09T03:25:21.352Z,100.00
2023-04-09T03:27:48.990Z,100.00
2023-04-09T03:30:19.062Z,100.00
2023-04-09T03:32:48.565Z,100.00
2023-04-09T03:35:16.314Z,100.00
2023-04-09T03:37:44.117Z,100.00
2023-04-09T03:40:12.934Z,100.00
2023-04-09T03:42:44.026Z,100.00
2023-04-09T03:45:11.689Z,100.00
2023-04-09T03:47:39.481Z,100.00
2023-04-09T03:50:07.936Z,100.00
2023-04-09T03:52:35.644Z,100.00
2023-04-09T03:55:03.766Z,100.00
2023-04-09T03:57:31.537Z,100.00
2023-04-09T04:00:02.892Z,100.00
2023-04-09T04:02:32.994Z,100.00
2023-04-09T04:05:03.891Z,100.00
2023-04-09T04:07:32.818Z,100.00
2023-04-09T04:10:00.593Z,100.00
2023-04-09T04:12:28.236Z,100.00
2023-04-09T04:14:55.849Z,100.00
2023-04-09T04:17:24.914Z,100.00
2023-04-09T04:19:52.578Z,100.00
2023-04-09T04:22:20.326Z,100.00
2023-04-09T04:24:47.969Z,100.00
2023-04-09T04:27:15.614Z,100.00
2023-04-09T04:29:43.242Z,100.00
2023-04-09T04:32:10.908Z,100.00
2023-04-09T04:34:39.924Z,100.00
2023-04-09T04:37:08.623Z,100.00
2023-04-09T04:39:36.302Z,100.00
2023-04-09T04:42:06.409Z,100.00
2023-04-09T04:44:33.983Z,100.00
2023-04-09T04:47:01.611Z,100.00
2023-04-09T04:49:29.479Z,100.00
2023-04-09T04:51:58.746Z,100.00
2023-04-09T04:54:26.694Z,100.00
2023-04-09T04:56:54.355Z,100.00
2023-04-09T04:59:22.044Z,100.00
2023-04-09T05:01:51.490Z,100.00
2023-04-09T05:04:19.034Z,100.00
2023-04-09T05:06:46.737Z,100.00
2023-04-09T05:09:15.829Z,100.00
2023-04-09T05:11:43.605Z,100.00
2023-04-09T05:14:11.357Z,100.00
2023-04-09T05:16:39.099Z,100.00
2023-04-09T05:19:06.902Z,100.00
2023-04-09T05:21:34.865Z,100.00
2023-04-09T05:24:02.816Z,100.00
2023-04-09T05:26:31.934Z,100.00
2023-04-09T05:28:59.628Z,100.00
2023-04-09T05:31:27.406Z,100.00
2023-04-09T05:33:54.960Z,100.00
2023-04-09T05:36:22.677Z,100.00
2023-04-09T05:38:50.665Z,100.00
2023-04-09T05:41:18.918Z,100.00
2023-04-09T05:43:47.928Z,100.00
2023-04-09T05:46:15.654Z,100.00
2023-04-09T05:48:43.290Z,100.00
2023-04-09T05:51:10.936Z,100.00
2023-04-09T05:53:38.572Z,100.00
2023-04-09T05:56:13.710Z,100.00
2023-04-09T05:58:41.582Z,100.00
2023-04-09T06:01:10.651Z,100.00
2023-04-09T06:03:38.375Z,100.00
2023-04-09T06:06:06.220Z,100.00
2023-04-09T06:08:33.930Z,100.00
2023-04-09T06:11:01.754Z,100.00
2023-04-09T06:13:29.437Z,100.00
2023-04-09T06:15:57.088Z,100.00
2023-04-09T06:18:26.207Z,100.00
2023-04-09T06:21:02.005Z,100.00
2023-04-09T06:23:29.716Z,100.00
2023-04-09T06:25:57.366Z,100.00
2023-04-09T06:28:26.048Z,100.00
2023-04-09T06:30:53.781Z,100.00
2023-04-09T06:33:22.053Z,100.00
2023-04-09T06:35:51.115Z,100.00
2023-04-09T06:38:18.835Z,100.00
2023-04-09T06:40:46.510Z,100.00
2023-04-09T06:43:14.187Z,100.00
2023-04-09T06:45:42.115Z,100.00
2023-04-09T06:48:09.650Z,100.00
2023-04-09T06:50:37.548Z,100.00
2023-04-09T06:53:08.096Z,100.00
2023-04-09T06:55:35.803Z,90.50
2023-04-09T06:58:03.942Z,85.23
2023-04-09T07:00:31.668Z,86.90
2023-04-09T07:02:59.934Z,79.50
2023-04-09T07:05:27.847Z,77.48
2023-04-09T07:07:55.528Z,68.32
2023-04-09T07:10:24.524Z,71.77
2023-04-09T07:12:54.480Z,74.91
2023-04-09T07:15:22.051Z,71.05
2023-04-09T07:17:49.776Z,91.72
2023-04-09T07:20:17.379Z,100.00
2023-04-09T07:22:45.081Z,100.00
2023-04-09T07:25:12.813Z,100.00
2023-04-09T07:27:42.277Z,100.00
2023-04-09T07:30:11.305Z,100.00
2023-04-09T07:32:39.144Z,100.00
2023-04-09T07:35:08.566Z,100.00
2023-04-09T07:37:36.239Z,86.76
2023-04-09T07:40:04.984Z,91.27
2023-04-09T07:42:32.729Z,91.19
2023-04-09T07:45:02.782Z,81.18
2023-04-09T07:47:30.590Z,74.34
2023-04-09T07:49:58.208Z,79.91
2023-04-09T07:52:25.770Z,91.73
2023-04-09T07:54:53.422Z,100.00
2023-04-09T07:57:21.081Z,86.93
2023-04-09T07:59:48.747Z,79.12
2023-04-09T08:02:17.940Z,81.12
2023-04-09T08:04:45.780Z,91.14
2023-04-09T08:07:13.558Z,94.25
2023-04-09T08:09:41.224Z,79.25
2023-04-09T08:12:10.351Z,79.17
2023-04-09T08:14:38.108Z,71.47
2023-04-09T08:17:05.825Z,74.79
2023-04-09T08:19:34.955Z,77.53
2023-04-09T08:22:02.618Z,70.25
2023-04-09T08:24:31.407Z,79.04
2023-04-09T08:26:59.069Z,87.34
2023-04-09T08:29:26.996Z,84.31
2023-04-09T08:31:54.817Z,93.69
2023-04-09T08:34:22.534Z,96.11
2023-04-09T08:36:51.769Z,100.00
2023-04-09T08:39:19.502Z,100.00
2023-04-09T08:41:47.636Z,100.00
2023-04-09T08:44:15.211Z,100.00
2023-04-09T08:46:43.368Z,100.00
2023-04-09T08:49:13.984Z,93.30
2023-04-09T08:51:46.529Z,95.08
2023-04-09T08:54:17.340Z,80.46
2023-04-09T08:56:45.485Z,85.37
2023-04-09T08:59:15.555Z,100.00
2023-04-09T09:01:44.696Z,100.00
2023-04-09T09:04:12.684Z,100.00
2023-04-09T09:06:41.606Z,100.00
2023-04-09T09:09:12.236Z,100.00
2023-04-09T09:11:43.753Z,100.00
2023-04-09T09:14:14.683Z,100.00
2023-04-09T09:16:44.588Z,87.55
2023-04-09T09:19:30.805Z,87.08
2023-04-09T09:22:01.074Z,92.98
2023-04-09T09:24:30.744Z,93.65
2023-04-09T09:27:00.624Z,100.00
2023-04-09T09:29:29.650Z,88.07
2023-04-09T09:31:57.308Z,94.94
2023-04-09T09:34:25.171Z,95.03
2023-04-09T09:36:53.113Z,100.00
2023-04-09T09:39:21.070Z,99.88
2023-04-09T09:42:08.380Z,100.00
2023-04-09T09:44:36.086Z,93.91
2023-04-09T09:47:05.921Z,94.18
2023-04-09T09:49:33.861Z,100.00
2023-04-09T09:52:11.357Z,100.00
2023-04-09T09:54:43.967Z,100.00
2023-04-09T09:57:19.016Z,100.00
2023-04-09T09:59:53.548Z,87.97
2023-04-09T10:02:24.309Z,77.43
2023-04-09T10:04:53.113Z,83.74
2023-04-09T10:07:21.727Z,82.88
2023-04-09T10:09:56.694Z,92.43
2023-04-09T10:12:27.089Z,79.49
2023-04-09T10:14:58.987Z,79.01
2023-04-09T10:17:26.773Z,78.32
2023-04-09T10:20:01.731Z,76.40
2023-04-09T10:22:34.577Z,100.00
2023-04-09T10:25:04.181Z,98.40
2023-04-09T10:27:33.205Z,80.79
2023-04-09T10:30:01.925Z,76.15
2023-04-09T10:32:36.589Z,70.05
2023-04-09T10:35:05.005Z,60.33
2023-04-09T10:37:35.667Z,62.98
2023-04-09T10:40:04.571Z,82.21
2023-04-09T10:42:38.952Z,79.08
2023-04-09T10:45:08.869Z,81.71
2023-04-09T10:47:38.805Z,72.39
2023-04-09T10:50:22.409Z,75.11
2023-04-09T10:52:53.444Z,68.96
2023-04-09T10:55:34.020Z,69.22
2023-04-09T10:58:03.535Z,73.89
2023-04-09T11:00:31.300Z,74.12
2023-04-09T11:03:20.936Z,67.61
2023-04-09T11:05:52.599Z,70.75
2023-04-09T11:08:21.673Z,76.55
2023-04-09T11:10:51.970Z,84.83
2023-04-09T11:13:22.343Z,81.12
2023-04-09T11:15:50.407Z,74.12
2023-04-09T11:18:22.638Z,75.42
2023-04-09T11:20:54.792Z,80.56
2023-04-09T11:23:24.034Z,85.95
2023-04-09T11:25:53.214Z,78.30
2023-04-09T11:28:23.928Z,78.18
2023-04-09T11:30:52.642Z,75.41
2023-04-09T11:33:20.705Z,70.64
2023-04-09T11:35:49.179Z,66.47
2023-04-09T11:38:17.659Z,70.93
2023-04-09T11:40:45.508Z,67.65
2023-04-09T11:43:15.057Z,80.72
2023-04-09T11:45:45.134Z,68.72
2023-04-09T11:48:13.599Z,78.22
2023-04-09T11:50:41.503Z,69.72
2023-04-09T11:53:21.087Z,87.13
2023-04-09T11:55:52.589Z,92.57
2023-04-09T11:58:22.895Z,100.00
2023-04-09T12:00:58.739Z,80.97
2023-04-09T12:03:31.315Z,79.13
2023-04-09T12:06:01.331Z,70.46
2023-04-09T12:08:29.096Z,69.33
2023-04-09T12:10:56.882Z,71.81
2023-04-09T12:13:32.977Z,67.56
2023-04-09T12:16:02.271Z,68.62
2023-04-09T12:18:30.377Z,74.16
2023-04-09T12:20:58.036Z,68.81
2023-04-09T12:23:25.674Z,69.84
2023-04-09T12:25:53.418Z,70.74
2023-04-09T12:28:21.227Z,71.01
2023-04-09T12:30:50.917Z,66.53
2023-04-09T12:33:20.294Z,71.66
2023-04-09T12:35:47.940Z,83.88
2023-04-09T12:38:15.888Z,80.60
2023-04-09T12:40:45.639Z,87.95
2023-04-09T12:43:13.350Z,79.46
2023-04-09T12:45:41.035Z,74.81
2023-04-09T12:48:08.763Z,91.11
2023-04-09T12:50:37.897Z,100.00
2023-04-09T12:53:05.883Z,95.56
2023-04-09T12:55:35.142Z,93.11
2023-04-09T12:58:02.840Z,99.16
2023-04-09T13:00:30.593Z,100.00
2023-04-09T13:02:58.340Z,100.00
2023-04-09T13:05:26.101Z,100.00
2023-04-09T13:07:55.361Z,100.00
2023-04-09T13:10:23.055Z,100.00
2023-04-09T13:12:51.040Z,100.00
2023-04-09T13:15:18.780Z,90.56
2023-04-09T13:17:46.541Z,79.05
2023-04-09T13:20:14.712Z,80.63
2023-04-09T13:22:42.395Z,80.90
2023-04-09T13:25:13.268Z,76.23
2023-04-09T13:27:42.468Z,65.67
2023-04-09T13:30:10.578Z,64.26
2023-04-09T13:32:38.469Z,69.87
2023-04-09T13:35:07.373Z,70.50
2023-04-09T13:37:35.220Z,65.42
2023-04-09T13:40:02.888Z,51.04
2023-04-09T13:42:31.963Z,51.25
2023-04-09T13:45:06.970Z,52.74
2023-04-09T13:47:34.759Z,51.15
2023-04-09T13:50:02.951Z,50.25
2023-04-09T13:52:31.718Z,51.02
2023-04-09T13:54:59.399Z,49.40
2023-04-09T13:57:26.980Z,47.25
2023-04-09T13:59:56.083Z,48.63
2023-04-09T14:02:23.879Z,53.87
2023-04-09T14:04:51.793Z,51.38
2023-04-09T14:07:19.438Z,50.49
2023-04-09T14:09:47.079Z,48.37
2023-04-09T14:12:14.899Z,49.28
2023-04-09T14:14:42.557Z,47.09
2023-04-09T14:17:13.310Z,45.09
2023-04-09T14:19:41.026Z,44.50
2023-04-09T14:22:09.019Z,45.94
2023-04-09T14:24:36.938Z,46.50
2023-04-09T14:27:04.711Z,51.00
2023-04-09T14:29:32.325Z,51.56
2023-04-09T14:32:00.036Z,45.02
2023-04-09T14:34:30.581Z,44.62
2023-04-09T14:36:59.025Z,46.75
2023-04-09T14:39:29.027Z,47.71
2023-04-09T14:41:56.703Z,48.87
2023-04-09T14:44:24.759Z,48.81
2023-04-09T14:46:52.556Z,52.03
2023-04-09T14:49:20.726Z,52.84
2023-04-09T14:51:51.085Z,50.93
2023-04-09T14:54:18.932Z,53.60
2023-04-09T14:56:46.580Z,53.49
2023-04-09T14:59:14.478Z,53.03
2023-04-09T15:01:42.538Z,50.73
2023-04-09T15:04:11.468Z,54.85
2023-04-09T15:06:40.369Z,60.98
2023-04-09T15:09:09.784Z,57.57
2023-04-09T15:11:37.566Z,60.98
2023-04-09T15:14:05.297Z,59.41
2023-04-09T15:16:33.198Z,59.04
2023-04-09T15:19:00.859Z,59.29
2023-04-09T15:21:28.490Z,61.42
2023-04-09T15:23:56.168Z,54.65
2023-04-09T15:26:25.482Z,54.68
2023-04-09T15:29:01.583Z,54.12
2023-04-09T15:31:29.293Z,53.70
2023-04-09T15:33:58.000Z,57.00
2023-04-09T15:36:26.239Z,52.76
2023-04-09T15:38:56.271Z,55.85
2023-04-09T15:41:25.449Z,51.87
2023-04-09T15:43:53.384Z,56.21
2023-04-09T15:46:21.057Z,73.61
2023-04-09T15:48:49.220Z,86.12
2023-04-09T15:51:16.896Z,72.90
2023-04-09T15:53:44.563Z,73.62
2023-04-09T15:56:12.595Z,78.11
2023-04-09T15:58:42.010Z,73.00
2023-04-09T16:01:10.351Z,69.49
2023-04-09T16:03:41.580Z,82.11
2023-04-09T16:06:11.316Z,89.49
2023-04-09T16:08:39.592Z,74.32
2023-04-09T16:11:10.127Z,72.93
2023-04-09T16:13:37.811Z,74.04
2023-04-09T16:16:07.471Z,71.67
2023-04-09T16:18:35.604Z,77.91
2023-04-09T16:21:03.590Z,89.26
2023-04-09T16:23:31.312Z,85.51
2023-04-09T16:25:59.269Z,79.36
2023-04-09T16:28:26.977Z,78.17
2023-04-09T16:30:55.275Z,79.11
2023-04-09T16:33:24.302Z,76.12
2023-04-09T16:35:52.055Z,75.69
2023-04-09T16:38:19.664Z,100.00
2023-04-09T16:40:47.329Z,100.00
2023-04-09T16:43:16.456Z,100.00
2023-04-09T16:45:44.297Z,100.00
2023-04-09T16:48:12.312Z,100.00
2023-04-09T16:50:41.892Z,100.00
2023-04-09T16:53:11.933Z,100.00
2023-04-09T16:55:39.518Z,100.00
2023-04-09T16:58:07.179Z,100.00
2023-04-09T17:00:35.083Z,100.00
2023-04-09T17:03:03.048Z,100.00
2023-04-09T17:05:30.883Z,100.00
2023-04-09T17:07:59.885Z,100.00
2023-04-09T17:10:27.567Z,100.00
2023-04-09T17:12:55.222Z,100.00
2023-04-09T17:15:23.161Z,100.00
2023-04-09T17:17:51.203Z,100.00
2023-04-09T17:20:19.258Z,100.00
2023-04-09T17:22:47.068Z,100.00
2023-04-09T17:25:16.608Z,100.00
2023-04-09T17:27:44.357Z,100.00
2023-04-09T17:30:12.390Z,100.00
2023-04-09T17:32:40.536Z,100.00
2023-04-09T17:35:09.008Z,100.00
2023-04-09T17:37:37.149Z,100.00
2023-04-09T17:40:06.102Z,100.00
2023-04-09T17:42:35.252Z,100.00
2023-04-09T17:45:03.986Z,100.00
2023-04-09T17:47:31.962Z,100.00
2023-04-09T17:50:01.317Z,100.00
2023-04-09T17:52:28.903Z,100.00
2023-04-09T17:54:57.645Z,100.00
2023-04-09T17:57:25.329Z,100.00
2023-04-09T17:59:54.419Z,100.00
2023-04-09T18:02:22.257Z,100.00
2023-04-09T18:04:50.286Z,100.00
2023-04-09T18:07:18.104Z,100.00
2023-04-09T18:09:46.138Z,75.03
2023-04-09T18:12:13.861Z,65.33
2023-04-09T18:14:41.596Z,55.81
2023-04-09T18:17:10.650Z,53.27
2023-04-09T18:19:38.287Z,50.92
2023-04-09T18:22:05.928Z,49.96
2023-04-09T18:24:33.609Z,50.06
2023-04-09T18:27:02.638Z,49.06
2023-04-09T18:29:32.466Z,48.81
2023-04-09T18:32:00.167Z,48.24
2023-04-09T18:34:29.141Z,47.32
2023-04-09T18:36:56.700Z,47.15
2023-04-09T18:39:24.278Z,47.17
2023-04-09T18:41:51.928Z,48.74
2023-04-09T18:44:19.827Z,47.63
2023-04-09T18:46:50.761Z,47.03
2023-04-09T18:49:18.515Z,49.74
2023-04-09T18:51:47.431Z,53.81
2023-04-09T18:54:14.978Z,67.65
2023-04-09T18:56:44.728Z,63.46
2023-04-09T18:59:14.107Z,67.22
2023-04-09T19:01:42.131Z,67.68
2023-04-09T19:04:10.473Z,69.41
2023-04-09T19:06:38.312Z,73.23
2023-04-09T19:09:07.341Z,75.51
2023-04-09T19:11:34.907Z,80.48
2023-04-09T19:14:03.434Z,73.44
2023-04-09T19:16:31.173Z,66.30
2023-04-09T19:18:58.861Z,69.10
2023-04-09T19:21:26.598Z,70.67
2023-04-09T19:23:54.277Z,69.23
2023-04-09T19:26:23.286Z,68.61
2023-04-09T19:28:50.983Z,63.97
2023-04-09T19:31:18.671Z,67.85
2023-04-09T19:33:46.373Z,74.90
2023-04-09T19:36:13.997Z,72.03
2023-04-09T19:38:41.719Z,76.13
2023-04-09T19:41:09.324Z,76.29
2023-04-09T19:43:40.923Z,76.50
2023-04-09T19:46:09.310Z,79.76
2023-04-09T19:48:37.223Z,82.15
2023-04-09T19:51:05.306Z,80.73
2023-04-09T19:53:32.931Z,74.64
2023-04-09T19:56:00.580Z,75.15
2023-04-09T19:58:28.268Z,73.62
2023-04-09T20:00:57.258Z,71.54
2023-04-09T20:03:25.128Z,84.53
2023-04-09T20:05:52.906Z,86.98
2023-04-09T20:08:20.488Z,88.78
2023-04-09T20:10:48.037Z,96.70
2023-04-09T20:13:15.591Z,83.81
2023-04-09T20:15:43.246Z,83.27
2023-04-09T20:18:12.226Z,86.90
2023-04-09T20:20:39.974Z,93.98
2023-04-09T20:23:07.637Z,88.53
2023-04-09T20:25:35.300Z,85.08
2023-04-09T20:28:03.329Z,84.45
2023-04-09T20:30:31.028Z,98.12
2023-04-09T20:32:58.753Z,97.58
2023-04-09T20:35:27.812Z,95.41
2023-04-09T20:37:55.473Z,87.26
2023-04-09T20:40:24.910Z,84.57
2023-04-09T20:42:52.597Z,85.57
2023-04-09T20:45:20.253Z,91.34
2023-04-09T20:47:49.736Z,91.49
2023-04-09T20:50:17.451Z,90.62
2023-04-09T20:52:46.456Z,99.07
2023-04-09T20:55:14.162Z,100.00
2023-04-09T20:57:41.865Z,100.00
2023-04-09T21:00:10.298Z,100.00
2023-04-09T21:02:38.666Z,99.16
2023-04-09T21:05:19.539Z,99.49
2023-04-09T21:07:52.023Z,97.57
2023-04-09T21:10:20.054Z,92.63
2023-04-09T21:12:47.789Z,94.15
2023-04-09T21:15:15.699Z,97.71
2023-04-09T21:17:43.377Z,82.57
2023-04-09T21:20:12.026Z,86.18
2023-04-09T21:22:39.603Z,84.51
2023-04-09T21:25:09.501Z,88.28
2023-04-09T21:27:37.282Z,90.41
2023-04-09T21:30:07.843Z,91.87
2023-04-09T21:32:35.630Z,94.70
2023-04-09T21:35:03.860Z,98.34
2023-04-09T21:37:31.530Z,100.00
2023-04-09T21:39:59.171Z,100.00
2023-04-09T21:42:28.185Z,100.00
2023-04-09T21:44:55.845Z,100.00
2023-04-09T21:47:23.662Z,100.00
2023-04-09T21:49:51.302Z,100.00
2023-04-09T21:52:21.527Z,100.00
2023-04-09T21:54:49.168Z,100.00
2023-04-09T21:57:16.968Z,100.00
2023-04-09T21:59:45.964Z,100.00
2023-04-09T22:02:13.715Z,100.00
2023-04-09T22:04:41.723Z,100.00
2023-04-09T22:07:10.725Z,100.00
2023-04-09T22:09:38.514Z,100.00
2023-04-09T22:12:06.169Z,100.00
2023-04-09T22:14:34.099Z,100.00
2023-04-09T22:17:03.572Z,100.00
2023-04-09T22:19:32.907Z,100.00
2023-04-09T22:22:00.871Z,100.00
2023-04-09T22:24:28.542Z,100.00
2023-04-09T22:26:56.428Z,100.00
2023-04-09T22:29:24.461Z,100.00
2023-04-09T22:31:52.223Z,100.00
2023-04-09T22:34:22.194Z,100.00
2023-04-09T22:36:50.409Z,100.00
2023-04-09T22:39:18.037Z,100.00
2023-04-09T22:41:46.046Z,100.00
2023-04-09T22:44:13.710Z,100.00
2023-04-09T22:46:41.561Z,100.00
2023-04-09T22:49:10.772Z,100.00
2023-04-09T22:51:41.671Z,100.00
2023-04-09T22:54:09.607Z,100.00
2023-04-09T22:56:37.444Z,100.00
2023-04-09T22:59:05.540Z,100.00
2023-04-09T23:01:33.565Z,100.00
2023-04-09T23:04:01.296Z,100.00
2023-04-09T23:06:28.976Z,100.00
2023-04-09T23:08:57.976Z,100.00
2023-04-09T23:11:25.903Z,100.00
2023-04-09T23:13:53.473Z,100.00
2023-04-09T23:16:21.067Z,100.00
2023-04-09T23:18:48.775Z,100.00
2023-04-09T23:21:16.729Z,100.00
2023-04-09T23:23:45.703Z,100.00
2023-04-09T23:26:15.011Z,100.00
2023-04-09T23:28:42.711Z,100.00
2023-04-09T23:31:10.465Z,100.00
2023-04-09T23:33:38.246Z,100.00
2023-04-09T23:36:06.563Z,100.00
2023-04-09T23:38:34.358Z,100.00
2023-04-09T23:41:02.411Z,100.00
2023-04-09T23:43:31.544Z,100.00
2023-04-09T23:45:59.182Z,100.00
2023-04-09T23:48:26.845Z,100.00
2023-04-09T23:50:54.499Z,100.00
2023-04-09T23:53:22.113Z,100.00
2023-04-09T23:55:50.153Z,100.00
2023-04-09T23:58:17.792Z,100.00
